createdAt,value
2022-11-02T00:01:21.209Z,6.38
2022-11-02T00:03:48.668Z,6.65
2022-11-02T00:06:15.715Z,6.90
2022-11-02T00:08:42.501Z,7.45
2022-11-02T00:11:09.630Z,7.13
2022-11-02T00:13:36.488Z,7.88
2022-11-02T00:16:05.849Z,7.38
2022-11-02T00:18:34.568Z,7.53
2022-11-02T00:21:02.361Z,7.75
2022-11-02T00:23:30.086Z,6.70
2022-11-02T00:26:01.832Z,7.70
2022-11-02T00:28:29.825Z,7.13
2022-11-02T00:30:56.846Z,6.57
2022-11-02T00:33:23.708Z,7.15
2022-11-02T00:35:50.568Z,6.10
2022-11-02T00:38:17.349Z,6.22
2022-11-02T00:40:44.252Z,6.65
2022-11-02T00:43:11.260Z,6.40
2022-11-02T00:45:38.672Z,6.20
2022-11-02T00:48:06.190Z,6.15
2022-11-02T00:50:33.404Z,7.15
2022-11-02T00:53:00.321Z,6.70
2022-11-02T00:55:27.765Z,6.68
2022-11-02T00:57:59.505Z,6.85
2022-11-02T01:00:26.488Z,6.88
2022-11-02T01:02:53.286Z,7.15
2022-11-02T01:05:20.130Z,6.45
2022-11-02T01:07:47.928Z,6.55
2022-11-02T01:10:14.697Z,6.90
2022-11-02T01:12:41.554Z,7.10
2022-11-02T01:15:10.945Z,8.18
2022-11-02T01:17:38.125Z,7.88
2022-11-02T01:20:06.676Z,7.00
2022-11-02T01:22:33.761Z,6.45
2022-11-02T01:25:00.672Z,7.40
2022-11-02T01:27:27.480Z,7.55
2022-11-02T01:29:54.352Z,6.82
2022-11-02T01:32:21.332Z,7.00
2022-11-02T01:34:48.225Z,7.38
2022-11-02T01:37:15.920Z,6.80
2022-11-02T01:39:42.727Z,7.45
2022-11-02T01:42:24.553Z,6.82
2022-11-02T01:44:51.767Z,7.20
2022-11-02T01:47:29.965Z,6.80
2022-11-02T01:50:13.380Z,6.70
2022-11-02T01:52:41.467Z,7.10
2022-11-02T01:55:24.972Z,6.72
2022-11-02T01:58:02.656Z,6.68
2022-11-02T02:00:29.733Z,7.22
2022-11-02T02:03:04.348Z,7.75
2022-11-02T02:05:36.083Z,6.70
2022-11-02T02:08:04.255Z,7.20
2022-11-02T02:10:32.131Z,7.50
2022-11-02T02:12:59.147Z,7.50
2022-11-02T02:15:55.551Z,7.05
2022-11-02T02:18:38.786Z,7.25
2022-11-02T02:21:30.738Z,7.05
2022-11-02T02:24:31.066Z,6.88
2022-11-02T02:27:14.135Z,6.40
2022-11-02T02:29:59.302Z,7.07
2022-11-02T02:32:36.566Z,6.82
2022-11-02T02:37:42.966Z,7.93
2022-11-02T02:40:20.832Z,6.75
2022-11-02T02:42:57.359Z,6.97
2022-11-02T02:45:24.137Z,7.93
2022-11-02T02:48:11.650Z,7.50
2022-11-02T02:50:50.147Z,7.53
2022-11-02T02:53:23.171Z,7.28
2022-11-02T02:55:51.846Z,7.28
2022-11-02T02:58:24.377Z,7.03
2022-11-02T03:00:55.549Z,7.20
2022-11-02T03:03:26.517Z,7.15
2022-11-02T03:06:07.378Z,6.97
2022-11-02T03:08:39.656Z,7.82
2022-11-02T03:11:17.195Z,7.40
2022-11-02T03:14:04.692Z,7.35
2022-11-02T03:16:44.091Z,7.32
2022-11-02T03:19:24.968Z,7.28
2022-11-02T03:22:17.601Z,7.75
2022-11-02T03:24:55.977Z,7.25
2022-11-02T03:30:26.708Z,6.75
2022-11-02T03:33:06.848Z,7.32
2022-11-02T03:35:48.929Z,7.20
2022-11-02T03:38:21.694Z,7.13
2022-11-02T03:40:52.774Z,6.75
2022-11-02T03:43:22.034Z,7.43
2022-11-02T03:45:56.600Z,7.15
2022-11-02T03:48:32.539Z,7.35
2022-11-02T03:51:05.260Z,8.15
2022-11-02T03:53:41.633Z,6.95
2022-11-02T03:56:17.148Z,6.78
2022-11-02T03:58:44.030Z,7.65
2022-11-02T04:01:12.424Z,7.13
2022-11-02T04:03:45.113Z,6.63
2022-11-02T04:06:15.217Z,7.50
2022-11-02T04:08:47.411Z,7.57
2022-11-02T04:11:35.198Z,6.60
2022-11-02T04:14:27.720Z,7.20
2022-11-02T04:17:16.165Z,7.38
2022-11-02T04:19:50.070Z,7.60
2022-11-02T04:22:37.635Z,6.97
2022-11-02T04:25:19.686Z,6.95
2022-11-02T04:27:54.313Z,7.03
2022-11-02T04:30:29.445Z,7.00
2022-11-02T04:33:16.965Z,6.93
2022-11-02T04:35:50.073Z,7.13
2022-11-02T04:38:36.601Z,7.88
2022-11-02T04:41:21.910Z,8.75
2022-11-02T04:43:51.051Z,8.82
2022-11-02T04:46:20.382Z,8.18
2022-11-02T04:48:48.577Z,8.32
2022-11-02T04:51:16.035Z,7.07
2022-11-02T04:53:44.081Z,6.68
2022-11-02T04:56:11.397Z,7.22
2022-11-02T04:58:38.457Z,8.00
2022-11-02T05:01:13.356Z,7.57
2022-11-02T05:03:40.525Z,7.63
2022-11-02T05:06:10.736Z,6.82
2022-11-02T05:08:38.081Z,6.68
2022-11-02T05:11:05.209Z,6.93
2022-11-02T05:13:33.459Z,6.72
2022-11-02T05:16:01.764Z,6.90
2022-11-02T05:18:29.824Z,6.93
2022-11-02T05:21:01.700Z,6.35
2022-11-02T05:23:30.424Z,6.28
2022-11-02T05:26:01.560Z,6.53
2022-11-02T05:28:31.885Z,7.50
2022-11-02T05:31:00.672Z,6.30
2022-11-02T05:33:31.149Z,6.07
2022-11-02T05:36:01.030Z,6.50
2022-11-02T05:38:30.181Z,7.10
2022-11-02T05:41:00.283Z,8.13
2022-11-02T05:43:31.628Z,9.07
2022-11-02T05:46:02.848Z,8.10
2022-11-02T05:48:33.202Z,6.55
2022-11-02T05:51:02.922Z,7.70
2022-11-02T05:53:34.308Z,6.68
2022-11-02T05:56:02.269Z,6.95
2022-11-02T05:58:29.620Z,7.30
2022-11-02T06:00:59.613Z,8.32
2022-11-02T06:03:27.001Z,6.97
2022-11-02T06:06:01.890Z,6.82
2022-11-02T06:08:31.479Z,7.47
2022-11-02T06:10:58.319Z,6.72
2022-11-02T06:13:25.206Z,7.57
2022-11-02T06:15:52.079Z,8.20
2022-11-02T06:18:18.861Z,7.32
2022-11-02T06:20:45.674Z,6.65
2022-11-02T06:23:14.572Z,6.80
2022-11-02T06:25:41.457Z,6.30
2022-11-02T06:28:08.283Z,7.05
2022-11-02T06:30:35.279Z,5.85
2022-11-02T06:33:06.897Z,6.78
2022-11-02T06:35:34.427Z,6.47
2022-11-02T06:38:01.320Z,5.97
2022-11-02T06:40:28.473Z,5.97
2022-11-02T06:45:45.643Z,10.52
2022-11-02T06:48:12.457Z,7.35
2022-11-02T06:50:39.322Z,7.70
2022-11-02T06:53:06.528Z,6.72
2022-11-02T06:55:33.643Z,6.75
2022-11-02T06:58:00.579Z,6.50
2022-11-02T07:00:27.379Z,6.28
2022-11-02T07:03:02.734Z,6.25
2022-11-02T07:05:30.202Z,6.15
2022-11-02T07:07:57.429Z,6.65
2022-11-02T07:10:24.443Z,6.00
2022-11-02T07:12:55.031Z,5.72
2022-11-02T07:15:23.285Z,6.22
2022-11-02T07:17:50.212Z,4.90
2022-11-02T07:20:17.515Z,5.28
2022-11-02T07:22:52.869Z,5.18
2022-11-02T07:25:19.793Z,5.25
2022-11-02T07:27:46.591Z,5.43
2022-11-02T07:30:14.123Z,5.35
2022-11-02T07:32:42.385Z,5.05
2022-11-02T07:35:11.469Z,5.45
2022-11-02T07:37:38.700Z,9.23
2022-11-02T07:40:07.856Z,4.95
2022-11-02T07:42:34.965Z,4.90
2022-11-02T07:45:04.669Z,4.93
2022-11-02T07:47:31.607Z,5.32
2022-11-02T07:49:59.689Z,5.70
2022-11-02T07:52:26.499Z,4.93
2022-11-02T07:54:53.350Z,5.78
2022-11-02T07:57:20.148Z,6.43
2022-11-02T07:59:47.070Z,6.20
2022-11-02T08:02:13.921Z,7.03
2022-11-02T08:04:43.956Z,8.30
2022-11-02T08:07:12.665Z,7.93
2022-11-02T08:09:39.559Z,8.20
2022-11-02T08:12:06.675Z,8.07
2022-11-02T08:14:33.518Z,8.00
2022-11-02T08:17:00.374Z,7.95
2022-11-02T08:19:27.441Z,7.82
2022-11-02T08:21:56.191Z,8.70
2022-11-02T08:24:23.001Z,7.15
2022-11-02T08:26:52.360Z,8.35
2022-11-02T08:29:21.973Z,7.28
2022-11-02T08:31:48.812Z,8.02
2022-11-02T08:34:15.630Z,8.50
2022-11-02T08:36:42.416Z,7.60
2022-11-02T08:39:09.223Z,7.60
2022-11-02T08:41:36.445Z,7.88
2022-11-02T08:44:03.334Z,7.28
2022-11-02T08:46:30.403Z,7.10
2022-11-02T08:48:57.208Z,7.03
2022-11-02T08:51:23.972Z,7.65
2022-11-02T08:53:52.175Z,6.47
2022-11-02T08:56:19.504Z,7.13
2022-11-02T08:58:46.347Z,7.82
2022-11-02T09:01:13.287Z,8.48
2022-11-02T09:03:40.212Z,7.63
2022-11-02T09:06:07.176Z,7.47
2022-11-02T09:08:34.139Z,7.07
2022-11-02T09:11:03.225Z,7.97
2022-11-02T09:13:30.617Z,9.02
2022-11-02T09:15:59.183Z,8.50
2022-11-02T09:18:26.224Z,8.93
2022-11-02T09:20:53.154Z,8.27
2022-11-02T09:23:21.110Z,8.00
2022-11-02T09:25:48.656Z,8.00
2022-11-02T09:28:15.896Z,8.10
2022-11-02T09:30:43.066Z,8.23
2022-11-02T09:33:10.478Z,7.82
2022-11-02T09:35:40.493Z,9.38
2022-11-02T09:38:07.624Z,8.40
2022-11-02T09:40:47.548Z,8.50
2022-11-02T09:43:17.398Z,8.02
2022-11-02T09:45:56.377Z,8.73
2022-11-02T09:48:30.840Z,8.70
2022-11-02T09:51:03.650Z,8.73
2022-11-02T09:54:02.345Z,7.75
2022-11-02T09:56:30.770Z,7.38
2022-11-02T09:59:02.153Z,7.35
2022-11-02T10:01:39.503Z,7.10
2022-11-02T10:04:41.594Z,7.93
2022-11-02T10:07:33.629Z,7.40
2022-11-02T10:10:32.518Z,6.93
2022-11-02T10:13:15.973Z,7.18
2022-11-02T10:15:56.955Z,7.25
2022-11-02T10:18:26.646Z,7.95
2022-11-02T10:20:58.297Z,7.05
2022-11-02T10:25:56.461Z,10.55
2022-11-02T10:28:39.276Z,7.65
2022-11-02T10:31:25.024Z,7.70
2022-11-02T10:33:57.035Z,7.40
2022-11-02T10:36:51.930Z,7.25
2022-11-02T10:39:50.882Z,6.15
2022-11-02T10:42:27.981Z,7.00
2022-11-02T10:45:21.367Z,7.60
2022-11-02T10:48:01.267Z,7.15
2022-11-02T10:50:31.296Z,7.32
2022-11-02T10:53:27.253Z,7.50
2022-11-02T10:56:01.427Z,7.70
2022-11-02T10:58:32.629Z,6.43
2022-11-02T11:01:13.238Z,6.90
2022-11-02T11:04:21.090Z,7.38
2022-11-02T11:06:48.259Z,6.28
2022-11-02T11:09:47.064Z,7.10
2022-11-02T11:12:37.836Z,7.05
2022-11-02T11:20:42.743Z,6.85
2022-11-02T11:23:12.265Z,7.05
2022-11-02T11:25:40.847Z,7.15
2022-11-02T11:28:28.733Z,6.40
2022-11-02T11:31:15.045Z,6.38
2022-11-02T11:33:48.576Z,7.32
2022-11-02T11:36:23.558Z,6.47
2022-11-02T11:38:51.273Z,7.55
2022-11-02T11:41:18.563Z,6.18
2022-11-02T11:43:47.543Z,6.00
2022-11-02T11:46:16.302Z,6.22
2022-11-02T11:48:49.184Z,6.80
2022-11-02T11:51:27.777Z,6.38
2022-11-02T11:54:20.076Z,6.18
2022-11-02T11:56:48.531Z,6.10
2022-11-02T11:59:27.330Z,7.05
2022-11-02T12:02:00.123Z,6.18
2022-11-02T12:04:32.011Z,6.72
2022-11-02T12:07:12.656Z,6.05
2022-11-02T12:09:45.509Z,7.00
2022-11-02T12:12:17.283Z,5.75
2022-11-02T12:14:53.118Z,6.13
2022-11-02T12:17:37.664Z,6.13
2022-11-02T12:20:17.290Z,5.68
2022-11-02T12:22:58.275Z,6.40
2022-11-02T12:25:47.704Z,5.97
2022-11-02T12:28:20.637Z,5.38
2022-11-02T12:31:06.208Z,6.30
2022-11-02T12:33:44.543Z,5.07
2022-11-02T12:36:23.211Z,5.30
2022-11-02T12:39:00.390Z,5.32
2022-11-02T12:42:22.491Z,4.32
2022-11-02T12:45:14.176Z,5.53
2022-11-02T12:47:58.300Z,5.35
2022-11-02T12:50:47.071Z,5.53
2022-11-02T12:53:35.382Z,5.30
2022-11-02T12:56:05.471Z,5.30
2022-11-02T12:58:37.452Z,4.55
2022-11-02T13:01:22.960Z,5.82
2022-11-02T13:04:16.980Z,5.25
2022-11-02T13:06:47.187Z,6.10
2022-11-02T13:09:33.583Z,5.47
2022-11-02T13:12:05.999Z,4.88
2022-11-02T13:14:54.926Z,4.45
2022-11-02T13:17:27.377Z,5.25
2022-11-02T13:20:00.825Z,6.53
2022-11-02T13:22:33.516Z,5.70
2022-11-02T13:25:30.382Z,6.00
2022-11-02T13:28:06.083Z,5.88
2022-11-02T13:30:34.374Z,6.63
2022-11-02T13:33:23.357Z,5.75
2022-11-02T13:35:51.713Z,5.97
2022-11-02T13:38:36.964Z,6.13
2022-11-02T13:41:03.716Z,5.93
2022-11-02T13:43:33.396Z,5.80
2022-11-02T13:46:14.204Z,7.10
2022-11-02T13:48:50.713Z,6.13
2022-11-02T13:51:49.489Z,6.32
2022-11-02T13:54:25.789Z,6.38
2022-11-02T13:56:56.314Z,6.72
2022-11-02T13:59:28.926Z,8.40
2022-11-02T14:01:57.310Z,7.15
2022-11-02T14:04:25.890Z,6.30
2022-11-02T14:07:03.069Z,7.07
2022-11-02T14:09:40.008Z,6.45
2022-11-02T14:12:25.428Z,6.22
2022-11-02T14:15:13.971Z,6.68
2022-11-02T14:17:53.048Z,7.13
2022-11-02T14:20:35.024Z,10.13
2022-11-02T14:23:18.647Z,8.65
2022-11-02T14:28:28.898Z,8.90
2022-11-02T14:34:12.910Z,13.18
2022-11-02T14:36:39.734Z,14.10
2022-11-02T14:39:27.274Z,12.07
2022-11-02T14:42:30.774Z,10.90
2022-11-02T14:45:06.410Z,12.45
2022-11-02T14:47:37.210Z,10.85
2022-11-02T14:50:16.973Z,10.10
2022-11-02T14:52:56.049Z,10.52
2022-11-02T14:55:27.334Z,14.18
2022-11-02T14:58:10.826Z,12.75
2022-11-02T15:01:06.030Z,13.00
2022-11-02T15:03:39.038Z,13.98
2022-11-02T15:06:12.729Z,13.85
2022-11-02T15:08:42.355Z,18.52
2022-11-02T15:12:02.707Z,16.98
2022-11-02T15:14:35.637Z,16.20
2022-11-02T15:17:26.544Z,15.80
2022-11-02T15:20:16.224Z,13.65
2022-11-02T15:25:36.353Z,13.50
2022-11-02T15:28:08.397Z,12.98
2022-11-02T15:30:45.653Z,10.68
2022-11-02T15:33:20.725Z,10.57
2022-11-02T15:35:51.974Z,12.25
2022-11-02T15:38:30.381Z,10.50
2022-11-02T15:41:14.519Z,14.52
2022-11-02T15:44:02.844Z,13.88
2022-11-02T15:46:35.259Z,12.57
2022-11-02T15:49:12.077Z,11.95
2022-11-02T15:51:50.753Z,13.27
2022-11-02T15:54:43.411Z,13.13
2022-11-02T15:57:53.997Z,13.25
2022-11-02T16:00:29.920Z,14.05
2022-11-02T16:03:02.886Z,15.27
2022-11-02T16:05:33.849Z,11.52
2022-11-02T16:08:16.646Z,10.52
2022-11-02T16:10:47.737Z,11.80
2022-11-02T16:13:17.536Z,11.32
2022-11-02T16:15:45.869Z,16.92
2022-11-02T16:18:28.051Z,13.05
2022-11-02T16:21:02.802Z,11.88
2022-11-02T16:23:35.918Z,11.20
2022-11-02T16:26:05.552Z,10.02
2022-11-02T16:28:34.568Z,8.95
2022-11-02T16:31:14.395Z,10.02
2022-11-02T16:33:56.065Z,10.73
2022-11-02T16:36:25.841Z,10.95
2022-11-02T16:39:00.162Z,8.93
2022-11-02T16:41:29.280Z,9.43
2022-11-02T16:43:57.749Z,11.23
2022-11-02T16:46:40.952Z,12.35
2022-11-02T16:49:12.876Z,12.85
2022-11-02T16:51:40.298Z,12.25
2022-11-02T16:54:24.897Z,12.10
2022-11-02T16:56:53.499Z,10.35
2022-11-02T16:59:21.539Z,11.40
2022-11-02T17:01:48.600Z,11.32
2022-11-02T17:04:26.935Z,11.95
2022-11-02T17:06:57.303Z,14.07
2022-11-02T17:09:32.682Z,14.00
2022-11-02T17:12:05.519Z,11.80
2022-11-02T17:14:32.914Z,13.00
2022-11-02T17:17:22.643Z,11.35
2022-11-02T17:22:22.104Z,11.63
2022-11-02T17:27:37.708Z,13.45
2022-11-02T17:30:30.760Z,16.58
2022-11-02T17:32:58.978Z,16.77
2022-11-02T17:35:27.538Z,21.25
2022-11-02T17:37:54.683Z,21.05
2022-11-02T17:40:22.186Z,21.20
2022-11-02T17:43:02.316Z,22.77
2022-11-02T17:45:37.505Z,23.50
2022-11-02T17:48:10.898Z,25.60
2022-11-02T17:50:39.600Z,28.15
2022-11-02T17:53:07.032Z,26.35
2022-11-02T17:55:34.940Z,23.90
2022-11-02T17:58:01.820Z,20.38
2022-11-02T18:00:29.078Z,28.70
2022-11-02T18:02:58.004Z,30.15
2022-11-02T18:05:49.463Z,28.92
2022-11-02T18:08:18.129Z,23.75
2022-11-02T18:10:47.058Z,23.17
2022-11-02T18:13:16.113Z,24.00
2022-11-02T18:15:43.447Z,23.25
2022-11-02T18:18:10.408Z,18.85
2022-11-02T18:20:41.858Z,16.17
2022-11-02T18:23:15.599Z,12.60
2022-11-02T18:25:42.604Z,8.13
2022-11-02T18:28:09.400Z,7.20
2022-11-02T18:30:36.196Z,6.15
2022-11-02T18:33:03.612Z,5.43
2022-11-02T18:35:30.423Z,5.68
2022-11-02T18:37:57.293Z,11.60
2022-11-02T18:40:24.126Z,9.27
2022-11-02T18:42:50.981Z,6.95
2022-11-02T18:45:18.785Z,5.95
2022-11-02T18:47:45.759Z,5.85
2022-11-02T18:50:13.855Z,5.88
2022-11-02T18:52:42.175Z,5.68
2022-11-02T18:55:09.002Z,5.38
2022-11-02T18:57:35.788Z,5.35
2022-11-02T19:00:03.760Z,5.13
2022-11-02T19:02:30.620Z,4.45
2022-11-02T19:04:57.618Z,6.32
2022-11-02T19:07:43.613Z,7.32
2022-11-02T19:10:10.550Z,7.28
2022-11-02T19:12:37.651Z,6.97
2022-11-02T19:15:05.278Z,6.50
2022-11-02T19:17:32.136Z,6.22
2022-11-02T19:19:58.980Z,5.28
2022-11-02T19:22:26.640Z,4.63
2022-11-02T19:24:53.869Z,4.60
2022-11-02T19:27:25.227Z,4.40
2022-11-02T19:29:52.290Z,5.07
2022-11-02T19:32:19.705Z,4.22
2022-11-02T19:34:47.264Z,4.28
2022-11-02T19:37:14.096Z,5.60
2022-11-02T19:39:41.365Z,5.13
2022-11-02T19:42:08.375Z,4.20
2022-11-02T19:44:42.105Z,4.35
2022-11-02T19:47:09.920Z,7.07
2022-11-02T19:49:36.789Z,5.43
2022-11-02T19:52:03.893Z,4.47
2022-11-02T19:54:30.821Z,4.70
2022-11-02T19:56:57.583Z,4.18
2022-11-02T19:59:24.413Z,4.13
2022-11-02T20:01:52.383Z,4.00
2022-11-02T20:04:19.626Z,3.90
2022-11-02T20:06:46.566Z,3.58
2022-11-02T20:09:16.378Z,3.85
2022-11-02T20:11:45.366Z,3.88
2022-11-02T20:14:13.986Z,3.90
2022-11-02T20:16:41.109Z,3.42
2022-11-02T20:19:09.334Z,3.80
2022-11-02T20:21:42.789Z,3.67
2022-11-02T20:24:10.930Z,3.50
2022-11-02T20:26:40.874Z,3.78
2022-11-02T20:29:10.821Z,4.38
2022-11-02T20:31:40.884Z,5.35
2022-11-02T20:34:08.989Z,4.43
2022-11-02T20:36:36.352Z,4.00
2022-11-02T20:39:05.128Z,3.13
2022-11-02T20:41:32.092Z,3.45
2022-11-02T20:43:58.975Z,3.38
2022-11-02T20:46:46.316Z,2.90
2022-11-02T20:49:21.763Z,3.00
2022-11-02T20:51:56.570Z,2.90
2022-11-02T20:54:23.960Z,2.78
2022-11-02T20:56:50.973Z,3.50
2022-11-02T20:59:18.050Z,2.90
2022-11-02T21:01:45.685Z,3.08
2022-11-02T21:04:18.539Z,3.22
2022-11-02T21:06:48.665Z,3.40
2022-11-02T21:09:15.551Z,3.55
2022-11-02T21:12:01.134Z,3.28
2022-11-02T21:14:28.052Z,3.85
2022-11-02T21:16:55.567Z,4.10
2022-11-02T21:19:22.463Z,4.35
2022-11-02T21:21:49.361Z,4.95
2022-11-02T21:24:16.310Z,4.68
2022-11-02T21:26:43.144Z,4.50
2022-11-02T21:29:10.074Z,4.75
2022-11-02T21:31:36.981Z,5.80
2022-11-02T21:34:03.932Z,5.05
2022-11-02T21:36:30.821Z,4.50
2022-11-02T21:38:58.847Z,4.72
2022-11-02T21:41:28.942Z,4.15
2022-11-02T21:43:56.204Z,4.28
2022-11-02T21:46:25.729Z,3.97
2022-11-02T21:48:52.950Z,4.45
2022-11-02T21:51:22.848Z,4.45
2022-11-02T21:53:50.448Z,4.78
2022-11-02T21:56:22.752Z,5.10
2022-11-02T21:58:49.710Z,4.55
2022-11-02T22:01:59.031Z,4.05
2022-11-02T22:04:31.640Z,3.75
2022-11-02T22:06:59.769Z,3.75
2022-11-02T22:09:27.667Z,4.30
2022-11-02T22:12:13.956Z,4.18
2022-11-02T22:14:42.009Z,4.20
2022-11-02T22:17:16.446Z,4.15
2022-11-02T22:19:50.178Z,3.50
2022-11-02T22:22:17.391Z,4.07
2022-11-02T22:24:44.992Z,3.95
2022-11-02T22:27:12.185Z,4.25
2022-11-02T22:29:39.008Z,4.10
2022-11-02T22:32:06.034Z,3.90
2022-11-02T22:34:32.828Z,4.68
2022-11-02T22:37:19.643Z,3.92
2022-11-02T22:39:46.443Z,4.53
2022-11-02T22:42:13.257Z,4.53
2022-11-02T22:44:40.095Z,4.40
2022-11-02T22:47:06.889Z,4.00
2022-11-02T22:49:36.245Z,4.47
2022-11-02T22:52:03.215Z,4.05
2022-11-02T22:54:30.033Z,3.88
2022-11-02T22:56:56.946Z,4.47
2022-11-02T22:59:23.860Z,4.22
2022-11-02T23:01:51.509Z,4.60
2022-11-02T23:04:18.607Z,4.30
2022-11-02T23:06:45.426Z,4.13
2022-11-02T23:09:12.372Z,4.18
2022-11-02T23:11:39.317Z,4.55
2022-11-02T23:14:12.551Z,4.35
2022-11-02T23:16:46.905Z,4.63
2022-11-02T23:19:31.821Z,4.78
2022-11-02T23:22:17.242Z,5.30
2022-11-02T23:25:18.147Z,5.60
2022-11-02T23:28:04.563Z,5.15
2022-11-02T23:30:53.101Z,6.05
2022-11-02T23:33:21.602Z,6.45
2022-11-02T23:36:07.292Z,7.00
2022-11-02T23:38:52.786Z,6.90
2022-11-02T23:41:22.860Z,6.82
2022-11-02T23:43:49.724Z,6.88
2022-11-02T23:46:17.773Z,6.07
2022-11-02T23:48:47.045Z,5.78
2022-11-02T23:54:20.435Z,6.28
2022-11-02T23:56:47.380Z,6.45
2022-11-02T23:59:16.276Z,6.47
